Time;durP1;ratioP1;P1;durP2;ratioP2;P2;SDS_P1;SDS_P2;PMS_P1;PMS_P2;Temp;Humidity;BMP_temperature;BMP_pressure;BME280_temperature;BME280_humidity;BME280_pressure;Samples;Min_cycle;Max_cycle;Signal;HPM_P1;HPM_P2
2022/02/19 00:00:24;;;;;;;;;;;6.30;99.90;;;;;;5101741;28;19935;-80
2022/02/19 00:02:50;;;;;;;;;;;6.40;99.90;;;;;;5090184;28;19916;-80
2022/02/19 00:05:16;;;;;;;;;;;6.40;99.90;;;;;;5087801;28;19912;-80
2022/02/19 00:07:41;;;;;;;;;;;6.40;99.90;;;;;;5080843;28;19920;-80
2022/02/19 00:10:07;;;;;;;;;;;6.40;99.90;;;;;;5080311;28;19919;-80
2022/02/19 00:12:32;;;;;;;;;;;6.40;99.90;;;;;;5081142;28;19912;-80
2022/02/19 00:14:58;;;;;;;;;;;6.40;99.90;;;;;;5091950;28;20390;-80
2022/02/19 00:17:23;;;;;;;;;;;6.30;99.90;;;;;;5092008;28;19912;-80
2022/02/19 00:19:49;;;;;;;;;;;6.30;99.90;;;;;;5066316;28;19923;-79
2022/02/19 00:22:15;;;;;;;;;;;6.30;99.90;;;;;;5062739;28;19923;-79
2022/02/19 00:24:40;;;;;;;;;;;6.30;99.90;;;;;;5069463;28;19920;-79
2022/02/19 00:27:06;;;;;;;;;;;6.20;99.90;;;;;;5082154;28;20281;-80
2022/02/19 00:29:31;;;;;;;;;;;6.20;99.90;;;;;;5080040;28;19913;-80
2022/02/19 00:31:57;;;;;;;;;;;6.20;99.90;;;;;;5079442;28;19962;-80
2022/02/19 00:34:22;;;;;;;;;;;6.20;99.90;;;;;;5055881;28;20293;-80
2022/02/19 00:36:48;;;;;;;;;;;6.20;99.90;;;;;;5044288;28;19919;-80
2022/02/19 00:39:13;;;;;;;;;;;6.20;99.90;;;;;;5074574;28;19920;-80
2022/02/19 00:41:39;;;;;;;;;;;6.30;99.90;;;;;;5078134;28;19920;-80
2022/02/19 00:44:05;;;;;;;;;;;6.30;99.90;;;;;;5076966;28;19969;-79
2022/02/19 00:46:30;;;;;;;;;;;6.30;99.90;;;;;;5099267;28;19973;-80
2022/02/19 00:48:56;;;;;;;;;;;6.30;99.90;;;;;;5078190;28;20371;-80
2022/02/19 00:51:21;;;;;;;;;;;6.30;99.90;;;;;;5067481;28;19926;-80
2022/02/19 00:53:47;;;;;;;;;;;6.30;99.90;;;;;;5065853;28;19918;-80
2022/02/19 00:56:13;;;;;;;;;;;6.30;99.90;;;;;;5092506;28;19926;-80
2022/02/19 00:58:38;;;;;;;;;;;6.30;99.90;;;;;;5081704;28;19916;-80
2022/02/19 01:01:04;;;;;;;;;;;6.30;99.90;;;;;;5084029;28;19908;-79
2022/02/19 01:03:31;;;;;;;;;;;6.30;99.90;;;;;;5080272;28;19916;-80
2022/02/19 01:05:57;;;;;;;;;;;6.30;99.90;;;;;;5092499;28;19916;-80
2022/02/19 01:08:23;;;;;;;;;;;6.40;99.90;;;;;;5062217;28;19916;-80
2022/02/19 01:10:48;;;;;;;;;;;6.40;99.90;;;;;;5082637;28;19913;-80
2022/02/19 01:13:14;;;;;;;;;;;6.40;99.90;;;;;;5094531;28;19913;-80
2022/02/19 01:15:41;;;;;;;;;;;6.30;99.90;;;;;;5075272;28;19973;-79
2022/02/19 01:18:08;;;;;;;;;;;6.30;1.00;;;;;;5070787;28;20347;-80
2022/02/19 01:20:33;;;;;;;;;;;6.30;1.00;;;;;;5072570;28;19966;-80
2022/02/19 01:22:59;;;;;;;;;;;6.30;1.00;;;;;;5079132;28;20350;-80
2022/02/19 01:25:24;;;;;;;;;;;6.30;99.90;;;;;;5077358;28;20007;-80
2022/02/19 01:27:50;;;;;;;;;;;6.30;99.90;;;;;;5067824;28;19915;-79
2022/02/19 01:30:15;;;;;;;;;;;6.30;99.90;;;;;;5074897;28;19913;-80
2022/02/19 01:32:40;;;;;;;;;;;6.30;99.90;;;;;;5084110;28;19912;-80
2022/02/19 01:35:06;;;;;;;;;;;6.20;99.90;;;;;;5066513;28;19917;-80
2022/02/19 01:37:32;;;;;;;;;;;6.20;99.90;;;;;;5078772;28;19917;-80
2022/02/19 01:39:57;;;;;;;;;;;6.30;99.90;;;;;;5075879;28;19920;-80
2022/02/19 01:42:23;;;;;;;;;;;6.20;99.90;;;;;;5064403;28;19913;-80
2022/02/19 01:44:50;;;;;;;;;;;6.20;99.90;;;;;;5065201;28;19912;-81
2022/02/19 01:47:16;;;;;;;;;;;6.20;99.90;;;;;;5085999;28;19909;-80
2022/02/19 01:49:41;;;;;;;;;;;6.20;99.90;;;;;;5073982;28;20376;-80
2022/02/19 01:52:09;;;;;;;;;;;6.20;99.90;;;;;;5065645;28;19919;-80
2022/02/19 01:54:34;;;;;;;;;;;6.10;99.90;;;;;;5077700;28;19916;-79
2022/02/19 01:57:00;;;;;;;;;;;6.10;99.90;;;;;;5087396;28;19913;-80
2022/02/19 01:59:26;;;;;;;;;;;6.10;99.90;;;;;;5060396;28;20010;-80
2022/02/19 02:01:51;;;;;;;;;;;6.00;99.90;;;;;;5074412;28;19912;-79
2022/02/19 02:04:17;;;;;;;;;;;6.00;99.90;;;;;;5078421;28;20366;-80
2022/02/19 02:06:43;;;;;;;;;;;6.00;99.90;;;;;;5068018;28;19912;-80
2022/02/19 02:09:08;;;;;;;;;;;6.00;99.90;;;;;;5068327;28;19940;-80
2022/02/19 02:11:35;;;;;;;;;;;6.00;99.90;;;;;;5065754;28;19912;-79
2022/02/19 02:14:00;;;;;;;;;;;6.00;99.90;;;;;;5082626;28;19912;-80
2022/02/19 02:16:36;;;;;;;;;;;6.00;99.90;;;;;;5060852;28;19923;-80
2022/02/19 02:19:01;;;;;;;;;;;6.00;99.90;;;;;;5081032;28;19912;-80
2022/02/19 02:21:27;;;;;;;;;;;6.00;99.90;;;;;;5077850;28;20277;-80
2022/02/19 02:23:52;;;;;;;;;;;6.00;99.90;;;;;;5066777;28;20265;-80
2022/02/19 02:26:18;;;;;;;;;;;6.00;99.90;;;;;;5061613;28;19934;-80
2022/02/19 02:28:44;;;;;;;;;;;6.00;99.90;;;;;;5080283;28;19913;-80
2022/02/19 02:31:09;;;;;;;;;;;6.10;99.90;;;;;;5075077;28;19946;-80
2022/02/19 02:33:34;;;;;;;;;;;6.10;99.90;;;;;;5069361;28;19920;-80
2022/02/19 02:36:00;;;;;;;;;;;6.10;99.90;;;;;;5074754;28;19916;-80
2022/02/19 02:38:26;;;;;;;;;;;6.20;99.90;;;;;;5064147;28;19923;-80
2022/02/19 02:40:51;;;;;;;;;;;6.20;99.90;;;;;;5096255;28;19914;-80
2022/02/19 02:43:17;;;;;;;;;;;6.10;99.90;;;;;;5087565;28;19908;-80
2022/02/19 02:45:44;;;;;;;;;;;6.10;99.90;;;;;;5075119;28;20411;-80
2022/02/19 02:48:10;;;;;;;;;;;6.20;99.90;;;;;;5066675;28;19929;-80
2022/02/19 02:50:35;;;;;;;;;;;6.20;99.90;;;;;;5061311;28;19913;-80
2022/02/19 02:53:01;;;;;;;;;;;6.10;99.90;;;;;;5075636;28;20003;-80
2022/02/19 02:55:26;;;;;;;;;;;6.10;99.90;;;;;;5057983;28;19916;-80
2022/02/19 02:57:52;;;;;;;;;;;6.10;99.90;;;;;;5051147;28;20363;-80
2022/02/19 03:00:17;;;;;;;;;;;6.10;99.90;;;;;;5076902;28;19919;-80
2022/02/19 03:02:43;;;;;;;;;;;6.10;99.90;;;;;;5054158;28;19913;-80
2022/02/19 03:05:09;;;;;;;;;;;6.10;99.90;;;;;;5048972;28;19919;-80
2022/02/19 03:07:35;;;;;;;;;;;6.10;99.90;;;;;;5078941;28;19912;-80
2022/02/19 03:10:00;;;;;;;;;;;6.10;99.90;;;;;;5060781;28;20003;-80
2022/02/19 03:12:26;;;;;;;;;;;6.10;99.90;;;;;;5070724;28;19948;-80
2022/02/19 03:14:52;;;;;;;;;;;6.10;99.90;;;;;;5071637;28;19917;-80
2022/02/19 03:17:17;;;;;;;;;;;6.10;99.90;;;;;;5061572;28;20368;-80
2022/02/19 03:19:45;;;;;;;;;;;6.10;99.90;;;;;;5068211;28;19919;-80
2022/02/19 03:22:12;;;;;;;;;;;6.10;99.90;;;;;;5068581;28;19912;-79
2022/02/19 03:24:38;;;;;;;;;;;6.10;99.90;;;;;;5054941;28;20372;-80
2022/02/19 03:27:03;;;;;;;;;;;6.00;99.90;;;;;;5090840;28;19939;-80
2022/02/19 03:29:29;;;;;;;;;;;5.90;99.90;;;;;;5071399;28;19924;-80
2022/02/19 03:31:55;;;;;;;;;;;5.90;99.90;;;;;;5081341;28;19919;-80
2022/02/19 03:34:21;;;;;;;;;;;5.90;99.90;;;;;;5070342;28;19912;-80
2022/02/19 03:36:46;;;;;;;;;;;5.90;99.90;;;;;;5092609;28;19951;-80
2022/02/19 03:39:12;;;;;;;;;;;5.90;99.90;;;;;;5091100;28;19908;-80
2022/02/19 03:41:37;;;;;;;;;;;5.90;99.90;;;;;;5051559;28;19935;-80
2022/02/19 03:44:03;;;;;;;;;;;5.90;99.90;;;;;;5073687;28;19917;-80
2022/02/19 03:46:31;;;;;;;;;;;5.90;99.90;;;;;;5076216;28;20550;-80
2022/02/19 03:48:57;;;;;;;;;;;5.90;99.90;;;;;;5063042;28;19913;-80
2022/02/19 03:51:23;;;;;;;;;;;5.80;99.90;;;;;;5077617;28;19912;-80
2022/02/19 03:53:48;;;;;;;;;;;5.80;99.90;;;;;;5067275;28;19931;-79
2022/02/19 03:56:14;;;;;;;;;;;5.80;99.90;;;;;;5075870;28;20503;-80
2022/02/19 03:58:39;;;;;;;;;;;5.80;99.90;;;;;;5066290;28;20288;-80
2022/02/19 04:01:05;;;;;;;;;;;5.70;99.90;;;;;;5069603;28;20015;-79
2022/02/19 04:03:30;;;;;;;;;;;5.70;99.90;;;;;;5079896;28;19916;-80
2022/02/19 04:05:56;;;;;;;;;;;5.70;99.90;;;;;;5085364;28;19948;-80
2022/02/19 04:08:22;;;;;;;;;;;5.70;99.90;;;;;;5079360;28;19962;-80
2022/02/19 04:10:47;;;;;;;;;;;5.70;99.90;;;;;;5057512;28;20218;-79
2022/02/19 04:13:13;;;;;;;;;;;5.70;99.90;;;;;;5059469;28;19909;-80
2022/02/19 04:15:38;;;;;;;;;;;5.70;99.90;;;;;;5067754;28;19927;-80
2022/02/19 04:18:04;;;;;;;;;;;5.70;99.90;;;;;;5086314;28;19908;-80
2022/02/19 04:20:29;;;;;;;;;;;5.70;99.90;;;;;;5080047;28;19916;-80
2022/02/19 04:22:56;;;;;;;;;;;5.70;99.90;;;;;;5066954;28;20288;-80
2022/02/19 04:25:25;;;;;;;;;;;5.70;99.90;;;;;;5071276;28;19908;-80
2022/02/19 04:27:52;;;;;;;;;;;5.70;99.90;;;;;;5070347;28;19959;-79
2022/02/19 04:30:17;;;;;;;;;;;5.70;99.90;;;;;;5074077;28;20345;-80
2022/02/19 04:32:42;;;;;;;;;;;5.70;99.90;;;;;;5073491;28;19913;-79
2022/02/19 04:35:10;;;;;;;;;;;5.60;99.90;;;;;;5073685;28;19921;-78
2022/02/19 04:37:36;;;;;;;;;;;5.60;99.90;;;;;;5050741;28;19912;-79
2022/02/19 04:40:02;;;;;;;;;;;5.60;99.90;;;;;;5063352;28;19909;-80
2022/02/19 04:42:28;;;;;;;;;;;5.60;99.90;;;;;;5077785;28;20399;-80
2022/02/19 04:44:53;;;;;;;;;;;5.60;99.90;;;;;;5082489;28;19909;-80
2022/02/19 04:47:19;;;;;;;;;;;5.60;99.90;;;;;;5096157;28;19920;-80
2022/02/19 04:49:44;;;;;;;;;;;5.60;99.90;;;;;;5078316;28;19919;-80
2022/02/19 04:52:10;;;;;;;;;;;5.50;99.90;;;;;;5064917;28;19913;-79
2022/02/19 04:54:35;;;;;;;;;;;5.50;99.90;;;;;;5077977;28;19917;-80
2022/02/19 04:57:01;;;;;;;;;;;5.50;99.90;;;;;;5079241;28;20003;-80
2022/02/19 04:59:26;;;;;;;;;;;5.40;99.90;;;;;;5059902;28;19920;-80
2022/02/19 05:01:52;;;;;;;;;;;5.40;99.90;;;;;;5070924;28;19913;-80
2022/02/19 05:04:19;;;;;;;;;;;5.30;99.90;;;;;;5047688;28;20353;-80
2022/02/19 05:06:45;;;;;;;;;;;5.30;99.90;;;;;;5062584;28;20380;-80
2022/02/19 05:09:10;;;;;;;;;;;5.20;99.90;;;;;;5075257;28;19919;-80
2022/02/19 05:11:36;;;;;;;;;;;5.20;99.90;;;;;;5087748;28;19912;-80
2022/02/19 05:14:01;;;;;;;;;;;5.10;99.90;;;;;;5086211;28;19919;-80
2022/02/19 05:16:26;;;;;;;;;;;5.10;99.90;;;;;;5082589;28;19916;-80
2022/02/19 05:18:52;;;;;;;;;;;5.10;99.90;;;;;;5079023;28;19913;-79
2022/02/19 05:21:17;;;;;;;;;;;5.10;99.90;;;;;;5077108;28;19909;-80
2022/02/19 05:23:43;;;;;;;;;;;5.10;99.90;;;;;;5058243;28;20011;-78
2022/02/19 05:26:08;;;;;;;;;;;5.00;99.90;;;;;;5085728;28;20368;-80
2022/02/19 05:28:34;;;;;;;;;;;5.00;99.90;;;;;;5067266;28;19920;-81
2022/02/19 05:31:01;;;;;;;;;;;5.00;99.90;;;;;;5079463;28;19913;-80
2022/02/19 05:33:26;;;;;;;;;;;5.00;99.90;;;;;;5058711;28;19919;-80
2022/02/19 05:35:52;;;;;;;;;;;4.90;99.90;;;;;;5054649;28;19991;-80
2022/02/19 05:38:17;;;;;;;;;;;4.90;99.90;;;;;;5076754;28;19912;-80
2022/02/19 05:40:42;;;;;;;;;;;4.90;99.90;;;;;;5067644;28;19909;-80
2022/02/19 05:43:08;;;;;;;;;;;4.90;99.90;;;;;;5055229;28;19966;-80
2022/02/19 05:45:33;;;;;;;;;;;4.90;99.90;;;;;;5092773;28;19919;-80
2022/02/19 05:47:59;;;;;;;;;;;4.90;99.90;;;;;;5077929;28;20487;-80
2022/02/19 05:50:25;;;;;;;;;;;4.90;99.90;;;;;;5051174;28;19912;-80
2022/02/19 05:52:50;;;;;;;;;;;4.90;99.90;;;;;;5100862;28;19908;-80
2022/02/19 05:55:16;;;;;;;;;;;4.90;99.90;;;;;;5071744;28;19916;-80
2022/02/19 05:57:42;;;;;;;;;;;4.90;99.90;;;;;;5077141;28;19916;-80
2022/02/19 06:00:08;;;;;;;;;;;4.90;99.90;;;;;;5053568;28;19912;-80
2022/02/19 06:02:33;;;;;;;;;;;4.90;99.90;;;;;;5061976;28;20292;-80
2022/02/19 06:04:58;;;;;;;;;;;4.90;99.90;;;;;;5061593;28;19920;-80
2022/02/19 06:07:24;;;;;;;;;;;4.80;99.90;;;;;;5059355;28;19967;-80
2022/02/19 06:09:49;;;;;;;;;;;4.80;99.90;;;;;;5070901;28;20383;-79
2022/02/19 06:12:15;;;;;;;;;;;4.80;99.90;;;;;;5069353;28;19935;-79
2022/02/19 06:14:40;;;;;;;;;;;4.80;99.90;;;;;;5053376;28;19917;-80
2022/02/19 06:17:06;;;;;;;;;;;4.80;99.90;;;;;;5083165;28;19912;-80
2022/02/19 06:19:31;;;;;;;;;;;4.70;99.90;;;;;;5074232;28;20014;-80
2022/02/19 06:21:57;;;;;;;;;;;4.70;99.90;;;;;;5075920;28;19920;-80
2022/02/19 06:24:22;;;;;;;;;;;4.60;99.90;;;;;;5069932;28;19912;-80
2022/02/19 06:26:48;;;;;;;;;;;4.70;99.90;;;;;;5065632;28;20062;-80
2022/02/19 06:29:13;;;;;;;;;;;4.70;99.90;;;;;;5079433;28;19952;-80
2022/02/19 06:31:39;;;;;;;;;;;4.70;99.90;;;;;;5061968;28;19916;-79
2022/02/19 06:34:04;;;;;;;;;;;4.70;99.90;;;;;;5069472;28;19917;-80
2022/02/19 06:36:29;;;;;;;;;;;4.70;99.90;;;;;;5069182;28;19912;-80
2022/02/19 06:38:55;;;;;;;;;;;4.70;99.90;;;;;;5079649;28;19919;-80
2022/02/19 06:41:20;;;;;;;;;;;4.80;99.90;;;;;;5075706;28;19966;-80
2022/02/19 06:43:46;;;;;;;;;;;4.90;99.90;;;;;;5072316;28;19912;-80
2022/02/19 06:46:11;;;;;;;;;;;5.00;99.90;;;;;;5068146;28;19931;-80
2022/02/19 06:48:37;;;;;;;;;;;5.00;99.90;;;;;;5062044;28;20010;-80
2022/02/19 06:51:02;;;;;;;;;;;5.00;99.90;;;;;;5062124;28;20428;-80
2022/02/19 06:53:28;;;;;;;;;;;5.00;99.90;;;;;;5072324;28;19917;-81
2022/02/19 06:55:53;;;;;;;;;;;5.10;99.90;;;;;;5057652;28;19922;-80
2022/02/19 06:58:21;;;;;;;;;;;5.20;99.90;;;;;;5056270;28;20386;-80
2022/02/19 07:00:47;;;;;;;;;;;5.20;99.90;;;;;;5060549;28;19919;-80
2022/02/19 07:03:12;;;;;;;;;;;5.40;99.90;;;;;;5089834;28;19920;-80
2022/02/19 07:05:38;;;;;;;;;;;5.50;99.90;;;;;;5054047;28;20325;-80
2022/02/19 07:08:04;;;;;;;;;;;5.70;99.90;;;;;;5051843;28;19919;-80
2022/02/19 07:10:29;;;;;;;;;;;5.80;99.90;;;;;;5061784;28;19954;-80
2022/02/19 07:12:55;;;;;;;;;;;5.90;99.90;;;;;;5039669;28;19971;-80
2022/02/19 07:15:20;;;;;;;;;;;5.90;99.90;;;;;;5075325;28;19916;-80
2022/02/19 07:17:47;;;;;;;;;;;5.90;99.90;;;;;;5074117;28;19909;-80
2022/02/19 07:20:13;;;;;;;;;;;6.00;99.90;;;;;;5070745;28;19919;-80
2022/02/19 07:22:38;;;;;;;;;;;6.10;99.90;;;;;;5072532;28;19916;-80
2022/02/19 07:25:04;;;;;;;;;;;6.30;99.90;;;;;;5067176;28;19943;-80
2022/02/19 07:27:39;;;;;;;;;;;7.00;99.90;;;;;;5090702;28;19916;-81
2022/02/19 07:30:07;;;;;;;;;;;7.30;99.90;;;;;;5070080;28;19912;-81
2022/02/19 07:32:33;;;;;;;;;;;7.20;99.90;;;;;;5051928;28;19923;-82
2022/02/19 07:34:59;;;;;;;;;;;7.80;99.90;;;;;;5066904;28;19987;-81
2022/02/19 07:37:28;;;;;;;;;;;9.10;99.90;;;;;;5072037;28;19947;-79
2022/02/19 07:39:54;;;;;;;;;;;10.70;99.90;;;;;;5058923;28;19912;-82
2022/02/19 07:42:20;;;;;;;;;;;12.30;99.90;;;;;;5074251;28;19944;-80
2022/02/19 07:44:45;;;;;;;;;;;13.60;99.90;;;;;;5071434;28;19916;-80
2022/02/19 07:47:11;;;;;;;;;;;14.20;99.90;;;;;;5072353;28;19912;-80
2022/02/19 08:00:34;;;;;;;;;;;18.00;99.90;;;;;;5094835;28;19931;-81
2022/02/19 08:03:00;;;;;;;;;;;18.40;99.90;;;;;;5064722;28;20370;-80
2022/02/19 08:05:25;;;;;;;;;;;18.90;99.90;;;;;;5081763;28;19939;-80
2022/02/19 08:07:51;;;;;;;;;;;19.30;99.90;;;;;;5085958;28;19912;-80
2022/02/19 08:10:16;;;;;;;;;;;20.10;99.90;;;;;;5090846;28;19919;-80
2022/02/19 08:12:41;;;;;;;;;;;19.90;99.90;;;;;;5083284;28;20081;-80
2022/02/19 08:15:08;;;;;;;;;;;19.80;99.90;;;;;;5089240;28;19919;-81
2022/02/19 08:17:33;;;;;;;;;;;20.40;99.90;;;;;;5078916;28;19912;-83
2022/02/19 08:19:59;;;;;;;;;;;20.30;99.90;;;;;;5099676;28;20692;-81
2022/02/19 08:22:24;;;;;;;;;;;20.30;99.90;;;;;;5079064;28;19919;-80
2022/02/19 08:24:50;;;;;;;;;;;20.70;99.90;;;;;;5080742;28;19960;-81
2022/02/19 08:27:15;;;;;;;;;;;21.00;99.90;;;;;;5082176;28;19920;-81
2022/02/19 08:29:41;;;;;;;;;;;21.00;99.90;;;;;;5060795;28;19912;-81
2022/02/19 08:32:06;;;;;;;;;;;21.60;99.90;;;;;;5082862;28;19913;-81
2022/02/19 08:34:32;;;;;;;;;;;21.80;99.90;;;;;;5078494;28;19913;-81
2022/02/19 08:36:57;;;;;;;;;;;21.70;99.90;;;;;;5073990;28;19935;-81
2022/02/19 08:39:23;;;;;;;;;;;21.70;99.90;;;;;;5086982;28;20001;-81
2022/02/19 08:41:49;;;;;;;;;;;22.10;99.90;;;;;;5080526;28;19912;-81
2022/02/19 08:44:14;;;;;;;;;;;22.10;99.90;;;;;;5097876;28;19909;-82
2022/02/19 08:46:40;;;;;;;;;;;22.00;99.90;;;;;;5058489;28;19964;-81
2022/02/19 08:49:05;;;;;;;;;;;21.80;99.90;;;;;;5072901;28;19965;-81
2022/02/19 08:51:31;;;;;;;;;;;22.10;99.90;;;;;;5071654;28;19920;-81
2022/02/19 08:53:56;;;;;;;;;;;21.40;99.90;;;;;;5075961;28;20356;-78
2022/02/19 08:56:22;;;;;;;;;;;21.70;99.90;;;;;;5062173;28;19913;-82
2022/02/19 08:58:47;;;;;;;;;;;21.90;99.90;;;;;;5063602;28;19916;-81
2022/02/19 09:01:13;;;;;;;;;;;22.30;99.90;;;;;;5078244;28;19943;-81
2022/02/19 09:03:38;;;;;;;;;;;22.90;99.90;;;;;;5077544;28;19913;-82
2022/02/19 09:06:04;;;;;;;;;;;23.20;99.90;;;;;;5074123;28;19999;-81
2022/02/19 09:08:29;;;;;;;;;;;23.20;99.90;;;;;;5097169;28;20403;-83
2022/02/19 09:10:55;;;;;;;;;;;21.10;99.90;;;;;;5078370;28;19908;-82
2022/02/19 09:13:20;;;;;;;;;;;19.50;99.90;;;;;;5097689;28;20376;-82
2022/02/19 09:15:48;;;;;;;;;;;18.80;99.90;;;;;;5098378;28;19919;-82
2022/02/19 09:18:13;;;;;;;;;;;19.00;99.90;;;;;;5079719;28;19961;-82
2022/02/19 09:20:39;;;;;;;;;;;20.30;99.90;;;;;;5081014;28;19927;-81
2022/02/19 09:23:04;;;;;;;;;;;19.10;99.90;;;;;;5058280;28;19912;-81
2022/02/19 09:25:30;;;;;;;;;;;18.70;99.90;;;;;;5092951;28;19913;-82
2022/02/19 09:27:55;;;;;;;;;;;19.20;99.90;;;;;;5091769;28;20003;-81
2022/02/19 09:30:21;;;;;;;;;;;18.90;99.90;;;;;;5092992;28;19908;-82
2022/02/19 09:32:46;;;;;;;;;;;19.60;99.90;;;;;;5058706;28;19915;-82
2022/02/19 09:35:15;;;;;;;;;;;20.50;99.90;;;;;;5060502;28;19908;-82
2022/02/19 09:37:40;;;;;;;;;;;21.00;99.90;;;;;;5056895;28;19913;-82
2022/02/19 09:40:06;;;;;;;;;;;22.00;99.90;;;;;;5075268;28;20003;-82
2022/02/19 09:42:32;;;;;;;;;;;21.50;99.90;;;;;;5092360;28;20365;-82
2022/02/19 09:44:59;;;;;;;;;;;20.60;99.90;;;;;;5092385;28;19913;-82
2022/02/19 09:47:26;;;;;;;;;;;20.90;99.90;;;;;;5077400;28;19908;-81
2022/02/19 09:49:52;;;;;;;;;;;19.10;99.90;;;;;;5058759;28;19909;-83
2022/02/19 09:52:17;;;;;;;;;;;20.00;99.90;;;;;;5058384;28;20360;-83
2022/02/19 09:54:43;;;;;;;;;;;20.30;99.90;;;;;;5076250;28;19927;-82
2022/02/19 09:57:08;;;;;;;;;;;21.20;99.90;;;;;;5058515;28;19990;-82
2022/02/19 09:59:34;;;;;;;;;;;21.50;99.90;;;;;;5058922;28;19915;-82
2022/02/19 10:02:00;;;;;;;;;;;21.70;99.90;;;;;;5059313;28;19908;-83
2022/02/19 10:04:26;;;;;;;;;;;22.50;99.90;;;;;;5076880;28;19908;-83
2022/02/19 10:06:52;;;;;;;;;;;22.60;99.90;;;;;;5060505;28;19909;-82
2022/02/19 10:09:18;;;;;;;;;;;23.00;99.90;;;;;;5059742;28;19916;-83
2022/02/19 10:11:44;;;;;;;;;;;23.30;99.90;;;;;;5078031;28;19928;-82
2022/02/19 10:14:30;;;;;;;;;;;22.90;99.90;;;;;;5059476;28;20341;-82
2022/02/19 10:17:06;;;;;;;;;;;22.50;99.90;;;;;;5077492;28;19908;-82
2022/02/19 10:19:51;;;;;;;;;;;22.10;99.90;;;;;;5077098;28;19908;-82
2022/02/19 10:22:18;;;;;;;;;;;22.20;99.90;;;;;;5076756;28;19915;-82
2022/02/19 10:24:47;;;;;;;;;;;21.50;99.90;;;;;;5077756;28;19919;-82
2022/02/19 10:27:13;;;;;;;;;;;21.20;99.90;;;;;;5060581;28;19912;-82
2022/02/19 10:29:53;;;;;;;;;;;21.20;99.90;;;;;;5061065;28;19912;-82
2022/02/19 10:32:19;;;;;;;;;;;21.00;99.90;;;;;;5059712;28;19912;-82
2022/02/19 10:35:13;;;;;;;;;;;20.90;99.90;;;;;;5078156;28;19915;-82
2022/02/19 10:37:43;;;;;;;;;;;21.10;99.90;;;;;;5069720;28;19948;-82
2022/02/19 10:40:25;;;;;;;;;;;21.20;99.90;;;;;;5079706;28;19920;-82
2022/02/19 10:42:53;;;;;;;;;;;21.20;99.90;;;;;;5078036;28;19909;-82
2022/02/19 10:45:18;;;;;;;;;;;20.80;99.90;;;;;;5077312;28;19955;-82
2022/02/19 10:47:43;;;;;;;;;;;18.90;99.90;;;;;;5059335;28;19924;-81
2022/02/19 10:50:13;;;;;;;;;;;17.10;99.90;;;;;;5077524;28;19909;-82
2022/02/19 10:52:40;;;;;;;;;;;16.40;99.90;;;;;;5076863;28;19912;-82
2022/02/19 10:55:14;;;;;;;;;;;17.20;99.90;;;;;;5058099;28;19916;-82
2022/02/19 10:57:43;;;;;;;;;;;17.10;99.90;;;;;;5060596;28;19958;-82
2022/02/19 11:00:10;;;;;;;;;;;18.00;99.90;;;;;;5094582;28;19923;-82
2022/02/19 11:02:36;;;;;;;;;;;18.40;99.90;;;;;;5094310;28;19934;-83
2022/02/19 11:05:02;;;;;;;;;;;20.10;99.90;;;;;;5095948;28;19940;-83
2022/02/19 11:07:28;;;;;;;;;;;21.60;99.90;;;;;;5081072;28;19915;-82
2022/02/19 11:09:53;;;;;;;;;;;22.00;99.90;;;;;;5080032;28;19913;-82
2022/02/19 11:12:19;;;;;;;;;;;22.30;99.90;;;;;;5075503;28;19920;-82
2022/02/19 11:14:45;;;;;;;;;;;22.50;99.90;;;;;;5094404;28;19915;-82
2022/02/19 11:17:12;;;;;;;;;;;22.30;99.90;;;;;;5095484;28;20315;-82
2022/02/19 11:19:39;;;;;;;;;;;22.40;99.90;;;;;;5094155;28;20328;-83
2022/02/19 11:22:05;;;;;;;;;;;21.80;99.90;;;;;;5079520;28;19915;-82
2022/02/19 11:24:32;;;;;;;;;;;21.40;99.90;;;;;;5094755;28;19963;-82
2022/02/19 11:26:58;;;;;;;;;;;21.60;99.90;;;;;;5095718;28;19916;-82
2022/02/19 11:29:24;;;;;;;;;;;22.20;99.90;;;;;;5090456;28;19912;-82
2022/02/19 11:31:51;;;;;;;;;;;21.40;99.90;;;;;;5078353;28;20391;-82
2022/02/19 11:34:20;;;;;;;;;;;21.50;99.90;;;;;;5080858;28;20288;-82
2022/02/19 11:36:46;;;;;;;;;;;20.70;99.90;;;;;;5081809;28;19909;-82
2022/02/19 11:39:12;;;;;;;;;;;20.30;99.90;;;;;;5064344;28;20369;-82
2022/02/19 11:41:43;;;;;;;;;;;19.90;99.90;;;;;;5081320;28;20007;-81
2022/02/19 11:44:15;;;;;;;;;;;18.60;99.90;;;;;;5063025;28;19955;-81
2022/02/19 11:46:40;;;;;;;;;;;17.20;99.90;;;;;;5080332;28;19920;-82
2022/02/19 11:49:18;;;;;;;;;;;16.40;99.90;;;;;;5079535;28;20394;-82
2022/02/19 11:51:44;;;;;;;;;;;16.00;99.90;;;;;;5095644;28;19934;-81
2022/02/19 11:54:12;;;;;;;;;;;15.50;99.90;;;;;;5079233;28;20003;-81
2022/02/19 11:56:39;;;;;;;;;;;15.10;99.90;;;;;;5095431;28;20003;-82
2022/02/19 11:59:05;;;;;;;;;;;16.00;99.90;;;;;;5062421;28;19912;-82
2022/02/19 12:01:32;;;;;;;;;;;16.60;99.90;;;;;;5061842;28;20007;-81
2022/02/19 12:04:13;;;;;;;;;;;17.20;99.90;;;;;;5060873;28;19908;-81
2022/02/19 12:06:39;;;;;;;;;;;16.30;99.90;;;;;;5094585;28;19917;-81
2022/02/19 12:09:05;;;;;;;;;;;15.10;99.90;;;;;;5060833;28;19908;-81
2022/02/19 12:11:31;;;;;;;;;;;15.20;99.90;;;;;;5078565;28;19978;-81
2022/02/19 12:13:59;;;;;;;;;;;14.50;99.90;;;;;;5077675;28;19927;-81
2022/02/19 12:16:31;;;;;;;;;;;14.40;99.90;;;;;;5060981;28;19924;-81
2022/02/19 12:19:23;;;;;;;;;;;13.80;99.90;;;;;;5078697;28;19991;-81
2022/02/19 12:21:48;;;;;;;;;;;13.80;99.90;;;;;;5060010;28;20331;-81
2022/02/19 12:24:14;;;;;;;;;;;13.40;99.90;;;;;;5078871;28;19912;-81
2022/02/19 12:26:54;;;;;;;;;;;14.50;99.90;;;;;;5093890;28;19935;-81
2022/02/19 12:29:20;;;;;;;;;;;16.00;99.90;;;;;;5079834;28;19908;-82
2022/02/19 12:31:59;;;;;;;;;;;17.50;99.90;;;;;;5063013;28;20046;-81
2022/02/19 12:34:25;;;;;;;;;;;18.50;99.90;;;;;;5060761;28;19919;-81
2022/02/19 12:36:54;;;;;;;;;;;18.00;99.90;;;;;;5080378;28;19908;-81
2022/02/19 12:39:23;;;;;;;;;;;18.20;99.90;;;;;;5063256;28;20334;-82
2022/02/19 12:41:52;;;;;;;;;;;18.30;99.90;;;;;;5062177;28;19908;-81
2022/02/19 12:44:19;;;;;;;;;;;17.40;99.90;;;;;;5075454;28;19921;-81
2022/02/19 12:46:44;;;;;;;;;;;16.40;99.90;;;;;;5079022;28;19912;-82
2022/02/19 12:49:10;;;;;;;;;;;15.40;99.90;;;;;;5094709;28;20284;-82
2022/02/19 12:51:36;;;;;;;;;;;15.90;99.90;;;;;;5078320;28;20003;-81
2022/02/19 12:54:03;;;;;;;;;;;16.30;99.90;;;;;;5093777;28;20379;-82
2022/02/19 12:56:39;;;;;;;;;;;16.80;99.90;;;;;;5080526;28;19991;-81
2022/02/19 12:59:04;;;;;;;;;;;16.50;99.90;;;;;;5080439;28;19991;-81
2022/02/19 13:01:30;;;;;;;;;;;15.30;99.90;;;;;;5075816;28;19994;-81
2022/02/19 13:03:55;;;;;;;;;;;15.00;99.90;;;;;;5077395;28;19930;-81
2022/02/19 13:06:23;;;;;;;;;;;15.30;99.90;;;;;;5077817;28;19912;-81
2022/02/19 13:08:57;;;;;;;;;;;15.00;99.90;;;;;;5078723;28;19909;-82
2022/02/19 13:11:23;;;;;;;;;;;14.80;99.90;;;;;;5095218;28;19915;-81
2022/02/19 13:13:48;;;;;;;;;;;14.90;99.90;;;;;;5078421;28;19908;-82
2022/02/19 13:16:14;;;;;;;;;;;15.50;99.90;;;;;;5078983;28;19923;-81
2022/02/19 13:18:40;;;;;;;;;;;15.30;99.90;;;;;;5075754;28;19936;-80
2022/02/19 13:21:10;;;;;;;;;;;15.50;99.90;;;;;;5076937;28;19912;-81
2022/02/19 13:23:35;;;;;;;;;;;15.30;99.90;;;;;;5081849;28;19912;-81
2022/02/19 13:26:01;;;;;;;;;;;14.80;99.90;;;;;;5075701;28;19923;-81
2022/02/19 13:28:27;;;;;;;;;;;14.30;99.90;;;;;;5099180;28;20130;-81
2022/02/19 13:30:53;;;;;;;;;;;13.80;99.90;;;;;;5069308;28;19909;-81
2022/02/19 13:33:18;;;;;;;;;;;13.70;99.90;;;;;;5073405;28;19917;-80
2022/02/19 13:35:44;;;;;;;;;;;13.40;99.90;;;;;;5097638;28;19912;-81
2022/02/19 13:38:10;;;;;;;;;;;13.60;99.90;;;;;;5058738;28;20059;-80
2022/02/19 13:40:35;;;;;;;;;;;14.30;99.90;;;;;;5055360;28;19916;-81
2022/02/19 13:43:12;;;;;;;;;;;14.60;99.90;;;;;;5056496;28;20000;-80
2022/02/19 13:45:42;;;;;;;;;;;14.20;99.90;;;;;;5070155;28;19916;-81
2022/02/19 13:48:08;;;;;;;;;;;14.50;99.90;;;;;;5056493;28;19963;-81
2022/02/19 13:50:39;;;;;;;;;;;14.10;99.90;;;;;;5071082;28;19947;-81
2022/02/19 13:53:09;;;;;;;;;;;13.40;99.90;;;;;;5062165;28;19931;-82
2022/02/19 13:55:35;;;;;;;;;;;12.80;99.90;;;;;;5069193;28;19948;-81
2022/02/19 13:58:11;;;;;;;;;;;12.70;99.90;;;;;;5061250;28;20344;-82
2022/02/19 14:00:36;;;;;;;;;;;12.90;99.90;;;;;;5052929;28;19920;-82
2022/02/19 14:03:03;;;;;;;;;;;12.90;99.90;;;;;;5072092;28;19920;-82
2022/02/19 14:05:35;;;;;;;;;;;13.40;99.90;;;;;;5067833;28;19924;-81
2022/02/19 14:08:01;;;;;;;;;;;13.30;99.90;;;;;;5048500;28;19951;-81
2022/02/19 14:10:27;;;;;;;;;;;13.70;99.90;;;;;;5060057;28;19913;-82
2022/02/19 14:12:53;;;;;;;;;;;13.80;99.90;;;;;;5056253;28;19916;-81
2022/02/19 14:15:31;;;;;;;;;;;14.20;99.90;;;;;;5069404;28;19912;-81
2022/02/19 14:18:03;;;;;;;;;;;14.60;99.90;;;;;;5059955;28;19931;-81
2022/02/19 14:20:31;;;;;;;;;;;14.40;99.90;;;;;;5080234;28;19935;-82
2022/02/19 14:22:57;;;;;;;;;;;13.90;99.90;;;;;;5086447;28;19913;-81
2022/02/19 14:25:25;;;;;;;;;;;13.40;99.90;;;;;;5057505;28;19913;-82
2022/02/19 14:27:50;;;;;;;;;;;12.90;99.90;;;;;;5085190;28;19916;-81
2022/02/19 14:30:36;;;;;;;;;;;12.70;99.90;;;;;;5080045;28;20388;-82